NH4 weather

CLOSED Orangeville Airport
Orangeville, Ontario, Canada

Public forecast

Using degrees Celsius for public forecast. Weather courtesy of forecast.io.

METAR (pilot weather report)

Closest report is Lester B. Pearson International Airport, 21.4 nm (39.7 km) SE. Retrieved 2019/05/21 15:00 UTC (5 minutes ago):

CYYZ 211500Z 35010G19KT 320V030 15SM FEW030 FEW250 14/05 A3013 RMK CF1CI1 CF TR SLP206

TAF (pilot weather forecast)

Closest forecast is Lester B. Pearson International Airport, 21.4 nm (39.7 km) SE. Retrieved 2019/05/21 15:40 UTC (0 seconds ago):

TAF CYYZ 211438Z 2115/2218 34012G22KT P6SM FEW030 BECMG 2123/2124 35010KT FM221000 08005KT P6SM BKN240 FM221500 10010G20KT P6SM BKN140 OVC220 RMK NXT FCST BY 211800Z